Date,TemperatureHighF,TemperatureAvgF,TemperatureLowF,DewpointHighF,DewpointAvgF,DewpointLowF,HumidityHigh,HumidityAvg,HumidityLow,PressureMaxIn,PressureMinIn,WindSpeedMaxMPH,WindSpeedAvgMPH,GustSpeedMaxMPH,PrecipitationSumIn
2013-8-1,82.8,69.8,62.6,64.8,61.4,56.5,93,76,51,30.01,29.91,9,2,17,0.00
2013-8-2,82.2,69.4,63.7,65.7,62.6,58.2,92,80,50,30.00,29.91,9,2,19,0.05
2013-8-3,85.3,71.3,65.5,67.4,64.7,62.4,98,81,53,30.03,29.89,9,2,20,0.09
2013-8-4,84.2,70.3,64.9,64.7,61.9,57.8,95,76,47,29.98,29.87,5,2,20,0.06
2013-8-5,82.6,71.4,63.9,66.9,62.9,58.1,91,76,46,29.99,29.89,8,2,25,0.06
2013-8-6,86.4,73.7,65.3,64.1,60.2,51.5,91,66,32,30.01,29.92,12,4,30,0.51
2013-8-7,85.5,71.1,60.8,63.9,59.6,53.3,88,69,34,29.99,29.90,9,3,21,0.00
2013-8-8,84.9,70.2,59.7,65.0,60.8,56.1,90,74,42,29.98,29.88,14,2,27,0.00
2013-8-9,83.8,69.9,61.7,64.2,61.2,57.9,94,75,44,29.97,29.90,7,2,16,0.00
2013-8-10,80.4,70.4,63.7,64.4,61.2,58.6,89,74,51,29.99,29.90,11,2,22,0.00
2013-8-11,84.7,70.6,61.7,67.6,63.1,57.0,98,79,43,29.99,29.87,11,2,20,0.02
2013-8-12,86.0,70.4,63.9,68.0,64.7,62.3,99,85,47,29.96,29.87,12,2,21,0.66
2013-8-13,84.4,70.9,62.4,67.9,64.8,60.7,99,83,46,29.95,29.85,9,2,19,0.01
2013-8-14,86.5,72.0,64.2,70.5,65.8,61.2,99,83,46,29.93,29.83,9,2,16,0.44
2013-8-15,87.4,74.8,64.8,68.1,64.9,62.1,95,74,45,29.94,29.83,7,2,15,0.00
2013-8-16,84.0,72.7,64.9,67.4,64.1,60.1,99,77,48,30.00,29.86,10,2,17,0.00
2013-8-17,80.8,70.1,64.8,66.9,63.2,60.7,98,80,55,29.99,29.90,7,2,13,0.00
2013-8-18,86.2,70.1,63.5,68.1,64.4,60.8,99,84,53,30.00,29.90,8,2,21,1.37
2013-8-19,82.8,70.8,61.7,65.6,63.3,59.3,99,79,48,29.97,29.87,8,2,19,0.02
2013-8-20,87.6,71.6,62.1,65.9,62.0,55.2,93,74,35,29.96,29.85,8,2,23,0.00
2013-8-21,69.1,66.3,64.6,62.5,61.4,60.7,89,84,79,29.96,29.91,3,1,10,0.00
2013-8-22,80.1,68.0,62.1,69.5,64.0,61.8,99,88,60,29.93,29.83,7,2,11,3.15
2013-8-23,84.6,67.6,61.9,67.2,63.4,60.6,99,88,51,29.97,29.85,7,2,12,2.61
2013-8-24,85.3,68.7,63.1,66.7,63.6,59.5,99,85,53,30.01,29.88,6,1,13,0.77
2013-8-25,75.6,68.8,62.4,65.3,63.4,60.4,99,84,69,30.01,29.92,6,2,13,0.00
2013-8-26,85.3,71.1,61.3,66.8,62.0,56.8,97,75,40,30.00,29.89,9,2,18,0.11
2013-8-27,87.1,68.6,61.5,66.0,62.5,56.7,99,83,39,29.98,29.89,8,2,15,0.30
2013-8-28,84.4,70.8,62.4,66.8,63.1,60.2,95,78,52,29.99,29.88,6,2,14,0.01
2013-8-29,84.0,71.2,64.2,67.9,63.4,60.3,95,78,49,29.99,29.90,8,2,17,0.00
2013-8-30,81.5,70.7,63.3,67.5,63.0,60.4,95,78,53,29.99,29.89,8,2,16,0.00
2013-8-31,86.7,69.6,62.2,66.3,62.8,58.8,99,81,44,30.02,29.90,7,2,19,0.26